createdAt,value
2023-04-27T00:00:17.946Z,16.07
2023-04-27T00:02:47.711Z,13.57
2023-04-27T00:05:20.861Z,14.90
2023-04-27T00:07:50.787Z,14.13
2023-04-27T00:10:20.466Z,20.92
2023-04-27T00:12:50.156Z,16.50
2023-04-27T00:15:19.843Z,16.85
2023-04-27T00:17:49.584Z,15.38
2023-04-27T00:20:22.011Z,15.05
2023-04-27T00:22:51.913Z,12.90
2023-04-27T00:25:21.602Z,15.98
2023-04-27T00:27:51.335Z,17.23
2023-04-27T00:30:21.139Z,15.73
2023-04-27T00:32:50.962Z,16.40
2023-04-27T00:35:23.430Z,16.48
2023-04-27T00:37:53.117Z,15.10
2023-04-27T00:40:23.649Z,17.38
2023-04-27T00:42:53.441Z,14.95
2023-04-27T00:45:23.224Z,19.88
2023-04-27T00:47:53.017Z,24.00
2023-04-27T00:50:31.290Z,16.40
2023-04-27T00:53:01.609Z,16.03
2023-04-27T00:55:31.400Z,16.92
2023-04-27T00:58:01.277Z,15.87
2023-04-27T01:00:31.178Z,17.25
2023-04-27T01:03:01.313Z,17.27
2023-04-27T01:05:34.124Z,16.13
2023-04-27T01:08:03.911Z,15.15
2023-04-27T01:10:33.597Z,14.55
2023-04-27T01:13:03.447Z,18.95
2023-04-27T01:15:34.221Z,18.00
2023-04-27T01:18:04.735Z,16.33
2023-04-27T01:20:38.942Z,16.60
2023-04-27T01:23:08.908Z,19.73
2023-04-27T01:25:41.345Z,15.00
2023-04-27T01:28:11.173Z,17.43
2023-04-27T01:30:40.804Z,18.70
2023-04-27T01:33:11.000Z,14.10
2023-04-27T01:35:40.730Z,15.27
2023-04-27T01:38:10.406Z,16.80
2023-04-27T01:40:42.990Z,16.10
2023-04-27T01:43:12.824Z,15.30
2023-04-27T01:45:42.524Z,17.50
2023-04-27T01:48:12.285Z,15.90
2023-04-27T01:50:41.933Z,16.00
2023-04-27T01:53:11.624Z,15.23
2023-04-27T01:55:43.936Z,16.50
2023-04-27T01:58:13.965Z,17.20
2023-04-27T02:00:44.667Z,18.00
2023-04-27T02:03:14.480Z,19.50
2023-04-27T02:05:44.588Z,15.88
2023-04-27T02:08:15.730Z,16.77
2023-04-27T02:10:48.172Z,20.30
2023-04-27T02:13:19.790Z,15.75
2023-04-27T02:15:49.738Z,17.17
2023-04-27T02:18:20.299Z,17.35
2023-04-27T02:20:50.158Z,18.00
2023-04-27T02:23:19.929Z,17.65
2023-04-27T02:25:52.270Z,13.45
2023-04-27T02:28:22.186Z,15.55
2023-04-27T02:30:52.442Z,17.17
2023-04-27T02:33:22.223Z,17.92
2023-04-27T02:35:51.849Z,17.42
2023-04-27T02:38:21.672Z,16.03
2023-04-27T02:40:58.653Z,15.52
2023-04-27T02:43:29.412Z,18.00
2023-04-27T02:45:59.509Z,16.65
2023-04-27T02:48:31.290Z,17.48
2023-04-27T02:51:01.191Z,19.98
2023-04-27T02:53:30.887Z,19.40
2023-04-27T02:56:03.526Z,17.05
2023-04-27T02:58:33.626Z,19.92
2023-04-27T03:01:03.277Z,15.73
2023-04-27T03:03:33.073Z,19.37
2023-04-27T03:06:03.798Z,19.40
2023-04-27T03:08:33.467Z,19.40
2023-04-27T03:11:05.956Z,16.53
2023-04-27T03:13:41.969Z,19.20
2023-04-27T03:16:13.058Z,19.50
2023-04-27T03:18:43.049Z,19.25
2023-04-27T03:21:13.307Z,17.35
2023-04-27T03:23:43.721Z,20.58
2023-04-27T03:26:16.935Z,21.87
2023-04-27T03:28:46.676Z,18.80
2023-04-27T03:31:17.605Z,20.13
2023-04-27T03:33:47.357Z,21.58
2023-04-27T03:36:18.357Z,17.48
2023-04-27T03:38:48.022Z,20.58
2023-04-27T03:41:20.584Z,19.90
2023-04-27T03:43:52.936Z,23.17
2023-04-27T03:46:22.722Z,21.00
2023-04-27T03:48:52.784Z,24.40
2023-04-27T03:51:22.710Z,17.60
2023-04-27T03:53:52.422Z,31.25
2023-04-27T03:56:24.714Z,18.70
2023-04-27T03:58:54.420Z,16.27
2023-04-27T04:01:30.951Z,19.02
2023-04-27T04:04:00.943Z,19.98
2023-04-27T04:06:31.259Z,20.35
2023-04-27T04:09:01.207Z,19.00
2023-04-27T04:11:34.019Z,16.52
2023-04-27T04:14:07.487Z,20.20
2023-04-27T04:16:37.236Z,21.35
2023-04-27T04:19:07.116Z,19.00
2023-04-27T04:21:36.902Z,20.60
2023-04-27T04:24:07.582Z,19.50
2023-04-27T04:26:40.270Z,16.98
2023-04-27T04:29:11.217Z,20.73
2023-04-27T04:31:41.612Z,21.60
2023-04-27T04:34:13.056Z,22.48
2023-04-27T04:36:43.558Z,20.42
2023-04-27T04:39:15.938Z,20.77
2023-04-27T04:41:49.523Z,21.65
2023-04-27T04:44:20.929Z,24.70
2023-04-27T04:46:51.364Z,22.33
2023-04-27T04:49:21.168Z,19.83
2023-04-27T04:51:53.086Z,22.25
2023-04-27T04:54:23.063Z,22.42
2023-04-27T04:56:55.483Z,22.77
2023-04-27T04:59:25.257Z,22.37
2023-04-27T05:01:56.053Z,21.02
2023-04-27T05:04:26.786Z,23.50
2023-04-27T05:06:56.658Z,20.98
2023-04-27T05:09:26.508Z,23.07
2023-04-27T05:11:58.881Z,26.15
2023-04-27T05:14:28.628Z,24.23
2023-04-27T05:16:58.286Z,26.00
2023-04-27T05:19:27.938Z,30.83
2023-04-27T05:21:57.668Z,27.42
2023-04-27T05:24:27.532Z,22.57
2023-04-27T05:27:02.145Z,28.48
2023-04-27T05:29:32.238Z,27.67
2023-04-27T05:32:02.130Z,25.60
2023-04-27T05:34:31.815Z,23.60
2023-04-27T05:37:01.472Z,25.97
2023-04-27T05:39:31.320Z,22.35
2023-04-27T05:42:03.676Z,24.58
2023-04-27T05:44:33.430Z,29.25
2023-04-27T05:47:03.190Z,28.05
2023-04-27T05:49:32.860Z,26.90
2023-04-27T05:52:02.469Z,28.63
2023-04-27T05:54:32.135Z,25.17
2023-04-27T05:57:04.473Z,30.02
2023-04-27T05:59:34.288Z,24.88
2023-04-27T06:02:04.154Z,29.60
2023-04-27T06:04:34.126Z,28.92
2023-04-27T06:07:04.227Z,26.13
2023-04-27T06:09:34.292Z,29.02
2023-04-27T06:12:06.711Z,25.23
2023-04-27T06:14:37.972Z,27.83
2023-04-27T06:17:07.749Z,31.35
2023-04-27T06:19:37.425Z,28.85
2023-04-27T06:22:07.232Z,30.38
2023-04-27T06:24:37.043Z,32.65
2023-04-27T06:27:09.429Z,32.45
2023-04-27T06:29:39.220Z,31.20
2023-04-27T06:32:08.944Z,29.25
2023-04-27T06:34:38.658Z,31.45
2023-04-27T06:37:08.290Z,26.20
2023-04-27T06:39:38.149Z,30.70
2023-04-27T06:42:10.565Z,29.05
2023-04-27T06:44:40.729Z,29.77
2023-04-27T06:47:11.004Z,28.80
2023-04-27T06:49:40.766Z,23.67
2023-04-27T06:52:10.466Z,20.10
2023-04-27T06:54:40.273Z,20.65
2023-04-27T06:57:12.694Z,23.70
2023-04-27T06:59:42.521Z,19.60
2023-04-27T07:02:12.192Z,19.60
2023-04-27T07:04:43.450Z,20.10
2023-04-27T07:07:13.400Z,17.75
2023-04-27T07:09:43.065Z,20.27
2023-04-27T07:12:15.402Z,19.77
2023-04-27T07:14:45.131Z,18.73
2023-04-27T07:17:14.784Z,16.40
2023-04-27T07:19:44.502Z,16.90
2023-04-27T07:22:16.155Z,17.00
2023-04-27T07:24:46.136Z,14.95
2023-04-27T07:27:18.521Z,16.23
2023-04-27T07:29:48.321Z,15.77
2023-04-27T07:32:18.113Z,15.48
2023-04-27T07:34:53.645Z,18.77
2023-04-27T07:37:24.230Z,18.15
2023-04-27T07:39:54.929Z,20.40
2023-04-27T07:42:27.303Z,15.90
2023-04-27T07:44:57.325Z,14.43
2023-04-27T07:47:27.217Z,18.52
2023-04-27T07:49:56.908Z,16.17
2023-04-27T07:52:26.608Z,17.30
2023-04-27T07:54:56.391Z,15.57
2023-04-27T07:57:28.711Z,14.88
2023-04-27T07:59:59.931Z,15.20
2023-04-27T08:02:31.850Z,15.30
2023-04-27T08:05:03.151Z,13.00
2023-04-27T08:07:35.330Z,14.65
2023-04-27T08:10:07.781Z,12.27
2023-04-27T08:12:40.048Z,14.02
2023-04-27T08:15:11.152Z,14.38
2023-04-27T08:17:42.061Z,10.52
2023-04-27T08:20:14.239Z,12.05
2023-04-27T08:22:44.322Z,9.80
2023-04-27T08:25:14.041Z,12.65
2023-04-27T08:27:46.287Z,14.77
2023-04-27T08:30:16.864Z,11.63
2023-04-27T08:32:46.616Z,9.75
2023-04-27T08:35:16.342Z,10.60
2023-04-27T08:37:46.573Z,10.17
2023-04-27T08:40:17.015Z,10.07
2023-04-27T08:42:57.807Z,10.68
2023-04-27T08:45:28.814Z,11.90
2023-04-27T08:47:58.702Z,10.70
2023-04-27T08:50:28.863Z,9.23
2023-04-27T08:52:58.509Z,13.63
2023-04-27T08:55:28.271Z,8.30
2023-04-27T08:58:01.818Z,8.93
2023-04-27T09:00:41.774Z,11.25
2023-04-27T09:03:17.156Z,11.37
2023-04-27T09:06:00.643Z,11.68
2023-04-27T09:08:44.535Z,10.18
2023-04-27T09:11:14.366Z,12.90
2023-04-27T09:13:47.134Z,10.50
2023-04-27T09:16:17.269Z,9.75
2023-04-27T09:18:47.531Z,13.65
2023-04-27T09:21:25.120Z,11.75
2023-04-27T09:23:55.167Z,9.30
2023-04-27T09:26:26.943Z,12.95
2023-04-27T09:28:59.819Z,14.27
2023-04-27T09:31:34.393Z,11.63
2023-04-27T09:34:04.666Z,11.25
2023-04-27T09:36:35.238Z,14.02
2023-04-27T09:39:07.104Z,10.80
2023-04-27T09:41:37.153Z,11.05
2023-04-27T09:44:10.541Z,8.38
2023-04-27T09:46:40.264Z,8.85
2023-04-27T09:49:10.106Z,10.75
2023-04-27T09:51:39.831Z,8.30
2023-04-27T09:54:11.228Z,9.17
2023-04-27T09:56:45.399Z,10.77
2023-04-27T09:59:34.098Z,11.40
2023-04-27T10:02:17.038Z,10.10
2023-04-27T10:05:09.078Z,11.55
2023-04-27T10:07:38.881Z,10.90
2023-04-27T10:10:09.635Z,9.50
2023-04-27T10:12:39.587Z,10.48
2023-04-27T10:15:19.673Z,13.32
2023-04-27T10:17:55.208Z,12.30
2023-04-27T10:20:32.268Z,10.25
2023-04-27T10:23:03.008Z,12.02
2023-04-27T10:25:40.524Z,10.95
2023-04-27T10:28:10.683Z,8.85
2023-04-27T10:30:49.121Z,11.95
2023-04-27T10:33:19.781Z,11.10
2023-04-27T10:35:57.706Z,13.63
2023-04-27T10:38:31.637Z,13.13
2023-04-27T10:41:02.857Z,12.00
2023-04-27T10:43:33.866Z,12.75
2023-04-27T10:46:16.804Z,11.35
2023-04-27T10:48:47.462Z,13.65
2023-04-27T10:51:19.088Z,9.43
2023-04-27T10:53:48.953Z,10.37
2023-04-27T10:56:18.690Z,10.07
2023-04-27T10:58:49.501Z,11.10
2023-04-27T11:01:29.976Z,11.70
2023-04-27T11:04:00.206Z,9.23
2023-04-27T11:06:32.275Z,10.60
2023-04-27T11:09:02.503Z,10.70
2023-04-27T11:11:32.378Z,11.13
2023-04-27T11:14:03.620Z,10.20
2023-04-27T11:16:36.386Z,9.75
2023-04-27T11:19:09.112Z,9.88
2023-04-27T11:21:39.047Z,7.73
2023-04-27T11:24:10.317Z,12.63
2023-04-27T11:26:40.789Z,8.27
2023-04-27T11:29:14.265Z,8.07
2023-04-27T11:31:49.463Z,8.48
2023-04-27T11:34:20.034Z,8.45
2023-04-27T11:37:10.642Z,7.80
2023-04-27T11:39:44.824Z,12.63
2023-04-27T11:42:19.336Z,11.50
2023-04-27T11:44:54.994Z,8.00
2023-04-27T11:47:28.359Z,7.70
2023-04-27T11:49:59.734Z,14.67
2023-04-27T11:52:31.995Z,13.73
2023-04-27T11:55:03.432Z,13.00
2023-04-27T11:57:35.055Z,13.23
2023-04-27T12:00:11.323Z,11.05
2023-04-27T12:02:47.853Z,11.45
2023-04-27T12:05:18.220Z,12.77
2023-04-27T12:07:47.959Z,8.40
2023-04-27T12:10:17.739Z,10.98
2023-04-27T12:12:47.670Z,9.33
2023-04-27T12:15:17.337Z,12.85
2023-04-27T12:17:49.671Z,10.57
2023-04-27T12:20:19.688Z,11.50
2023-04-27T12:22:49.337Z,10.50
2023-04-27T12:25:19.866Z,11.60
2023-04-27T12:27:50.222Z,11.63
2023-04-27T12:30:20.390Z,14.70
2023-04-27T12:32:52.744Z,14.83
2023-04-27T12:35:22.456Z,11.45
2023-04-27T12:37:52.893Z,13.32
2023-04-27T12:40:23.370Z,16.10
2023-04-27T12:42:53.181Z,9.70
2023-04-27T12:45:22.924Z,15.68
2023-04-27T12:48:03.501Z,14.13
2023-04-27T12:50:34.004Z,12.75
2023-04-27T12:53:03.710Z,10.18
2023-04-27T12:55:34.450Z,11.20
2023-04-27T12:58:04.872Z,12.63
2023-04-27T13:00:34.598Z,10.98
2023-04-27T13:03:07.909Z,12.70
2023-04-27T13:05:38.450Z,14.68
2023-04-27T13:08:08.284Z,11.40
2023-04-27T13:10:38.018Z,12.93
2023-04-27T13:13:07.988Z,15.30
2023-04-27T13:15:38.809Z,13.65
2023-04-27T13:18:11.657Z,15.50
2023-04-27T13:20:41.384Z,12.77
2023-04-27T13:23:11.237Z,13.23
2023-04-27T13:25:41.496Z,13.52
2023-04-27T13:28:11.210Z,12.20
2023-04-27T13:30:40.899Z,13.02
2023-04-27T13:33:22.750Z,12.33
2023-04-27T13:35:53.556Z,13.35
2023-04-27T13:38:23.400Z,10.77
2023-04-27T13:40:53.139Z,8.98
2023-04-27T13:43:22.903Z,11.50
2023-04-27T13:45:52.647Z,13.52
2023-04-27T13:48:25.275Z,16.98
2023-04-27T13:50:55.011Z,14.13
2023-04-27T13:53:25.933Z,12.30
2023-04-27T13:55:56.053Z,13.00
2023-04-27T13:58:26.426Z,11.98
2023-04-27T14:00:56.614Z,15.90
2023-04-27T14:03:29.780Z,12.88
2023-04-27T14:05:59.693Z,14.30
2023-04-27T14:08:29.351Z,13.27
2023-04-27T14:10:59.013Z,12.70
2023-04-27T14:13:28.709Z,10.93
2023-04-27T14:15:58.467Z,11.30
2023-04-27T14:18:32.793Z,12.23
2023-04-27T14:21:03.014Z,14.07
2023-04-27T14:23:33.110Z,16.08
2023-04-27T14:26:02.800Z,13.90
2023-04-27T14:28:32.639Z,14.35
2023-04-27T14:31:02.287Z,16.90
2023-04-27T14:33:34.735Z,14.18
2023-04-27T14:36:04.463Z,14.20
2023-04-27T14:38:34.214Z,14.00
2023-04-27T14:41:03.983Z,18.83
2023-04-27T14:43:33.697Z,15.13
2023-04-27T14:46:12.406Z,10.20
2023-04-27T14:48:52.677Z,14.00
2023-04-27T14:51:22.976Z,12.52
2023-04-27T14:53:52.765Z,15.35
2023-04-27T14:56:23.343Z,11.23
2023-04-27T14:58:53.104Z,12.93
2023-04-27T15:01:22.916Z,13.82
2023-04-27T15:03:55.529Z,16.95
2023-04-27T15:06:28.110Z,14.45
2023-04-27T15:08:57.856Z,14.40
2023-04-27T15:11:27.586Z,14.20
2023-04-27T15:13:57.321Z,14.57
2023-04-27T15:16:27.889Z,15.70
2023-04-27T15:19:00.168Z,14.93
2023-04-27T15:21:29.913Z,12.00
2023-04-27T15:23:59.845Z,13.90
2023-04-27T15:26:29.848Z,19.80
2023-04-27T15:29:00.108Z,14.25
2023-04-27T15:31:29.946Z,13.07
2023-04-27T15:34:02.411Z,10.35
2023-04-27T15:36:32.531Z,11.20
2023-04-27T15:39:02.216Z,15.50
2023-04-27T15:41:32.319Z,14.48
2023-04-27T15:44:02.054Z,12.57
2023-04-27T15:46:31.873Z,12.23
2023-04-27T15:49:04.508Z,17.60
2023-04-27T15:51:34.295Z,15.40
2023-04-27T15:54:03.982Z,13.60
2023-04-27T15:56:33.702Z,13.77
2023-04-27T15:59:03.897Z,11.15
2023-04-27T16:01:33.687Z,16.05
2023-04-27T16:04:06.402Z,13.43
2023-04-27T16:06:37.663Z,12.25
2023-04-27T16:09:10.562Z,14.80
2023-04-27T16:11:40.528Z,13.23
2023-04-27T16:14:10.184Z,12.82
2023-04-27T16:16:39.995Z,9.88
2023-04-27T16:19:12.928Z,15.00
2023-04-27T16:21:43.363Z,12.50
2023-04-27T16:24:13.249Z,15.05
2023-04-27T16:26:43.015Z,14.25
2023-04-27T16:29:13.009Z,15.70
2023-04-27T16:31:44.932Z,11.40
2023-04-27T16:34:17.395Z,12.75
2023-04-27T16:36:48.588Z,13.00
2023-04-27T16:39:19.462Z,15.50
2023-04-27T16:41:49.611Z,19.05
2023-04-27T16:44:19.305Z,13.45
2023-04-27T16:46:50.695Z,14.32
2023-04-27T16:49:23.005Z,12.63
2023-04-27T16:51:54.444Z,11.60
2023-04-27T16:54:24.239Z,12.45
2023-04-27T16:56:55.088Z,14.10
2023-04-27T16:59:25.039Z,17.38
2023-04-27T17:01:54.826Z,15.27
2023-04-27T17:04:27.428Z,11.55
2023-04-27T17:06:57.199Z,11.75
2023-04-27T17:09:26.834Z,12.07
2023-04-27T17:11:56.466Z,13.13
2023-04-27T17:14:26.522Z,11.30
2023-04-27T17:16:56.200Z,13.65
2023-04-27T17:19:28.660Z,14.68
2023-04-27T17:21:58.384Z,14.25
2023-04-27T17:24:28.138Z,13.90
2023-04-27T17:26:57.798Z,13.38
2023-04-27T17:29:27.491Z,14.98
2023-04-27T17:31:57.216Z,13.90
2023-04-27T17:34:29.570Z,13.27
2023-04-27T17:36:59.304Z,16.00
2023-04-27T17:39:28.956Z,13.90
2023-04-27T17:41:59.087Z,13.57
2023-04-27T17:44:28.812Z,15.75
2023-04-27T17:46:58.752Z,14.73
2023-04-27T17:49:31.597Z,14.25
2023-04-27T17:52:01.491Z,14.00
2023-04-27T17:54:31.164Z,14.65
2023-04-27T17:57:00.824Z,12.60
2023-04-27T17:59:30.625Z,14.95
2023-04-27T18:02:00.482Z,10.18
2023-04-27T18:04:33.040Z,14.38
2023-04-27T18:07:02.890Z,15.88
2023-04-27T18:09:33.124Z,13.65
2023-04-27T18:12:03.201Z,11.05
2023-04-27T18:14:32.985Z,13.37
2023-04-27T18:17:02.666Z,11.55
2023-04-27T18:19:34.963Z,15.53
2023-04-27T18:22:04.677Z,13.23
2023-04-27T18:24:34.387Z,14.70
2023-04-27T18:27:04.194Z,16.27
2023-04-27T18:29:35.028Z,14.57
2023-04-27T18:32:05.786Z,13.02
2023-04-27T18:34:38.412Z,14.48
2023-04-27T18:37:08.116Z,14.10
2023-04-27T18:39:37.894Z,14.30
2023-04-27T18:42:07.644Z,16.40
2023-04-27T18:44:37.411Z,15.25
2023-04-27T18:47:07.911Z,13.00
2023-04-27T18:49:40.380Z,15.13
2023-04-27T18:52:11.689Z,11.38
2023-04-27T18:54:42.244Z,11.43
2023-04-27T18:57:12.043Z,10.17
2023-04-27T18:59:41.987Z,13.38
2023-04-27T19:02:11.752Z,13.13
2023-04-27T19:04:52.833Z,13.32
2023-04-27T19:07:31.976Z,13.50
2023-04-27T19:10:01.858Z,13.43
2023-04-27T19:12:31.717Z,13.32
2023-04-27T19:15:01.458Z,14.30
2023-04-27T19:17:31.497Z,11.40
2023-04-27T19:20:03.925Z,13.18
2023-04-27T19:22:35.051Z,14.07
2023-04-27T19:25:04.791Z,12.45
2023-04-27T19:27:34.643Z,14.70
2023-04-27T19:30:04.512Z,13.65
2023-04-27T19:32:36.460Z,15.07
2023-04-27T19:35:12.513Z,15.73
2023-04-27T19:37:42.332Z,12.57
2023-04-27T19:40:13.694Z,13.30
2023-04-27T19:42:43.717Z,13.88
2023-04-27T19:45:13.759Z,17.03
2023-04-27T19:47:43.458Z,14.80
2023-04-27T19:50:16.228Z,14.20
2023-04-27T19:52:46.162Z,14.05
2023-04-27T19:55:15.902Z,12.88
2023-04-27T19:57:45.720Z,15.77
2023-04-27T20:00:16.352Z,14.88
2023-04-27T20:02:46.275Z,18.63
2023-04-27T20:05:19.211Z,15.87
2023-04-27T20:07:50.123Z,16.42
2023-04-27T20:10:19.944Z,16.17
2023-04-27T20:12:56.722Z,11.60
2023-04-27T20:15:27.510Z,14.67
2023-04-27T20:17:57.435Z,15.30
2023-04-27T20:20:29.880Z,13.95
2023-04-27T20:22:59.672Z,17.30
2023-04-27T20:25:29.687Z,14.02
2023-04-27T20:27:59.416Z,16.17
2023-04-27T20:30:29.927Z,15.75
2023-04-27T20:35:34.114Z,15.63
2023-04-27T20:38:03.818Z,15.65
2023-04-27T20:40:33.600Z,12.38
2023-04-27T20:43:04.444Z,14.00
2023-04-27T20:45:34.438Z,15.30
2023-04-27T20:48:04.369Z,13.90
2023-04-27T20:50:37.202Z,14.52
2023-04-27T20:53:07.210Z,18.70
2023-04-27T20:55:37.135Z,16.38
2023-04-27T20:58:06.794Z,14.95
2023-04-27T21:00:36.435Z,16.52
2023-04-27T21:03:07.334Z,16.45
2023-04-27T21:05:41.131Z,15.33
2023-04-27T21:08:10.979Z,16.05
2023-04-27T21:10:41.189Z,18.55
2023-04-27T21:13:11.027Z,19.25
2023-04-27T21:15:41.126Z,14.95
2023-04-27T21:18:18.831Z,15.18
2023-04-27T21:20:55.482Z,16.17
2023-04-27T21:23:25.334Z,11.50
2023-04-27T21:25:55.037Z,13.68
2023-04-27T21:28:25.044Z,13.45
2023-04-27T21:30:54.785Z,13.50
2023-04-27T21:33:24.481Z,14.52
2023-04-27T21:35:57.340Z,13.75
2023-04-27T21:38:27.187Z,13.60
2023-04-27T21:40:56.854Z,14.15
2023-04-27T21:43:26.536Z,15.82
2023-04-27T21:45:56.218Z,12.50
2023-04-27T21:48:26.233Z,15.23
2023-04-27T21:50:58.570Z,16.60
2023-04-27T21:53:28.317Z,17.25
2023-04-27T21:55:59.352Z,12.88
2023-04-27T21:58:29.122Z,13.43
2023-04-27T22:00:58.808Z,14.15
2023-04-27T22:03:28.763Z,16.55
2023-04-27T22:06:01.183Z,14.07
2023-04-27T22:08:31.142Z,14.95
2023-04-27T22:11:01.489Z,15.70
2023-04-27T22:13:31.497Z,13.07
2023-04-27T22:16:01.531Z,13.07
2023-04-27T22:18:31.693Z,12.32
2023-04-27T22:21:04.183Z,15.43
2023-04-27T22:23:34.599Z,14.43
2023-04-27T22:26:04.570Z,13.18
2023-04-27T22:28:34.334Z,14.77
2023-04-27T22:31:04.058Z,22.30
2023-04-27T22:33:34.106Z,16.15
2023-04-27T22:36:06.710Z,19.20
2023-04-27T22:38:36.535Z,16.70
2023-04-27T22:41:06.196Z,14.05
2023-04-27T22:43:36.060Z,20.80
2023-04-27T22:46:05.759Z,15.98
2023-04-27T22:48:35.464Z,15.32
2023-04-27T22:51:10.959Z,13.10
2023-04-27T22:53:40.840Z,14.85
2023-04-27T22:56:10.940Z,16.80
2023-04-27T22:58:40.905Z,15.55
2023-04-27T23:01:10.649Z,19.13
2023-04-27T23:03:40.403Z,17.63
2023-04-27T23:06:15.471Z,13.80
2023-04-27T23:08:47.198Z,18.45
2023-04-27T23:11:19.007Z,14.37
2023-04-27T23:13:50.696Z,14.43
2023-04-27T23:16:20.436Z,19.23
2023-04-27T23:18:50.937Z,16.42
2023-04-27T23:21:23.181Z,14.33
2023-04-27T23:23:52.847Z,19.53
2023-04-27T23:26:22.541Z,14.93
2023-04-27T23:28:52.435Z,14.80
2023-04-27T23:31:22.121Z,17.77
2023-04-27T23:33:52.315Z,15.77
2023-04-27T23:36:24.544Z,15.95
2023-04-27T23:38:54.301Z,19.33
2023-04-27T23:41:23.989Z,15.65
2023-04-27T23:43:53.707Z,15.63
2023-04-27T23:46:23.458Z,17.38
2023-04-27T23:48:53.171Z,19.52
2023-04-27T23:51:25.489Z,20.17
2023-04-27T23:53:55.480Z,24.75
2023-04-27T23:56:26.196Z,22.40
2023-04-27T23:58:55.931Z,19.17
